Time;durP1;ratioP1;P1;durP2;ratioP2;P2;SDS_P1;SDS_P2;PMS_P1;PMS_P2;Temp;Humidity;BMP_temperature;BMP_pressure;BME280_temperature;BME280_humidity;BME280_pressure;Samples;Min_cycle;Max_cycle;Signal;HPM_P1;HPM_P2
2021/01/07 00:00:15;;;;;;;12.38;7.78;;;;;;;2.31;81.33;99625.06;3826800;23;20017;-79
2021/01/07 00:01:50;;;;;;;12.05;7.07;;;;;;;2.38;80.96;99626.34;3825330;23;20466;-76
2021/01/07 00:03:21;;;;;;;11.00;7.28;;;;;;;2.39;80.92;99622.75;3821239;23;20025;-78
2021/01/07 00:04:52;;;;;;;11.48;6.72;;;;;;;2.37;80.86;99623.78;3829595;23;20099;-80
2021/01/07 00:06:36;;;;;;;12.65;7.47;;;;;;;2.25;80.76;99626.31;3836524;23;20026;-80
2021/01/07 00:08:08;;;;;;;11.98;7.20;;;;;;;2.40;80.88;99623.59;3832063;23;20037;-86
2021/01/07 00:09:49;;;;;;;11.10;7.10;;;;;;;2.45;80.68;99629.41;3834695;23;20014;-80
2021/01/07 00:11:20;;;;;;;12.13;7.35;;;;;;;2.53;80.35;99629.75;3832177;23;20021;-81
2021/01/07 00:12:53;;;;;;;12.50;6.45;;;;;;;2.54;80.27;99626.16;3830228;23;20029;-78
2021/01/07 00:14:30;;;;;;;12.23;6.57;;;;;;;2.61;79.96;99630.06;3819166;23;20022;-77
2021/01/07 00:16:01;;;;;;;10.55;6.88;;;;;;;2.61;80.06;99627.41;3822187;23;20044;-77
2021/01/07 00:17:35;;;;;;;11.25;7.30;;;;;;;2.55;79.76;99625.19;3819162;23;20017;-77
2021/01/07 00:19:06;;;;;;;12.10;7.35;;;;;;;2.56;80.25;99629.50;3821204;23;20029;-78
2021/01/07 00:20:37;;;;;;;10.40;7.07;;;;;;;2.62;80.02;99628.25;3818457;23;20028;-77
2021/01/07 00:22:08;;;;;;;;;;;;;;;2.47;79.88;99628.34;3821798;23;20018;-77
2021/01/07 00:23:40;;;;;;;10.90;6.47;;;;;;;2.55;80.20;99630.47;3818904;23;19923;-77
2021/01/07 00:25:26;;;;;;;12.60;6.47;;;;;;;2.61;79.90;99627.41;3820685;23;20033;-78
2021/01/07 00:26:58;;;;;;;12.45;7.18;;;;;;;2.56;79.71;99624.22;3819559;23;20029;-76
2021/01/07 00:28:37;;;;;;;13.15;7.43;;;;;;;2.51;79.66;99626.34;3822166;23;20026;-77
2021/01/07 00:30:11;;;;;;;12.00;6.18;;;;;;;2.54;79.84;99631.44;3819951;23;20080;-77
2021/01/07 00:31:43;;;;;;;10.55;6.07;;;;;;;2.64;79.76;99627.22;3822848;23;20324;-77
2021/01/07 00:33:18;;;;;;;9.88;5.97;;;;;;;2.64;79.68;99621.94;3819890;23;20025;-77
2021/01/07 00:34:53;;;;;;;8.48;4.68;;;;;;;2.69;79.66;99626.06;3822003;23;20425;-77
2021/01/07 00:36:34;;;;;;;11.27;6.47;;;;;;;2.73;79.22;99623.09;3820163;23;20017;-77
2021/01/07 00:38:05;;;;;;;10.23;6.10;;;;;;;2.70;79.58;99627.75;3819765;23;20029;-77
2021/01/07 00:39:36;;;;;;;;;;;;;;;2.67;79.45;99630.59;3822723;23;20093;-76
2021/01/07 00:41:09;;;;;;;12.93;7.20;;;;;;;2.72;79.51;99623.22;3820422;23;19917;-76
2021/01/07 00:42:42;;;;;;;10.48;6.30;;;;;;;2.74;79.32;99626.59;3822689;23;20026;-77
2021/01/07 00:44:13;;;;;;;13.98;7.20;;;;;;;2.65;79.52;99631.53;3820089;23;20022;-77
2021/01/07 00:45:44;;;;;;;11.32;6.65;;;;;;;2.76;79.24;99629.94;3826529;23;20036;-81
2021/01/07 00:47:17;;;;;;;10.25;6.60;;;;;;;2.78;79.10;99625.41;3831789;23;20026;-77
2021/01/07 00:48:59;;;;;;;8.15;5.50;;;;;;;2.72;79.20;99625.84;3834552;23;20025;-84
2021/01/07 00:50:38;;;;;;;11.50;7.22;;;;;;;2.72;79.08;99628.50;3832394;23;20022;-82
2021/01/07 00:52:15;;;;;;;12.27;6.85;;;;;;;2.63;78.90;99633.44;3826389;23;20024;-77
2021/01/07 00:53:52;;;;;;;9.57;5.82;;;;;;;2.73;78.96;99635.47;3820544;23;20033;-78
2021/01/07 00:55:26;;;;;;;14.00;7.47;;;;;;;2.69;79.07;99634.84;3823111;23;20454;-76
2021/01/07 00:56:58;;;;;;;12.38;7.00;;;;;;;2.71;79.11;99629.44;3824080;23;20028;-78
2021/01/07 00:58:30;;;;;;;12.82;7.32;;;;;;;2.59;79.52;99633.75;3834308;23;20510;-84
2021/01/07 01:00:03;;;;;;;10.48;6.50;;;;;;;2.72;79.13;99634.59;3832359;23;20033;-80
2021/01/07 01:01:41;;;;;;;10.52;6.55;;;;;;;2.72;79.20;99631.13;3834598;23;20017;-79
2021/01/07 01:03:13;;;;;;;12.48;7.68;;;;;;;2.75;79.01;99636.19;3832295;23;20021;-81
2021/01/07 01:04:44;;;;;;;10.13;5.80;;;;;;;2.79;79.08;99635.03;3823664;23;20021;-77
2021/01/07 01:06:15;;;;;;;12.77;7.60;;;;;;;2.76;79.08;99640.50;3820328;23;20029;-76
2021/01/07 01:07:46;;;;;;;11.82;7.45;;;;;;;2.73;78.81;99635.47;3823247;23;20021;-76
2021/01/07 01:09:17;;;;;;;;;;;;;;;2.58;79.61;99637.34;3820915;23;20032;-78
2021/01/07 01:10:50;;;;;;;10.82;6.35;;;;;;;2.65;79.52;99634.16;3823991;23;19916;-77
2021/01/07 01:12:23;;;;;;;15.80;9.23;;;;;;;2.63;79.21;99633.44;3820648;23;20021;-78
2021/01/07 01:13:55;;;;;;;14.40;7.63;;;;;;;2.62;79.50;99637.03;3820774;23;20051;-76
2021/01/07 01:15:25;;;;;;;11.85;7.55;;;;;;;2.60;79.29;99636.28;3822595;23;20032;-77
2021/01/07 01:17:02;;;;;;;;;;;;;;;2.41;79.58;99641.94;3820880;23;20474;-78
2021/01/07 01:18:52;;;;;;;13.30;7.50;;;;;;;2.42;79.83;99638.34;3822492;23;19920;-76
2021/01/07 01:20:24;;;;;;;11.55;7.40;;;;;;;2.41;80.10;99643.75;3820688;23;20018;-78
2021/01/07 01:22:01;;;;;;;11.13;7.25;;;;;;;2.42;79.75;99642.81;3823356;23;20037;-76
2021/01/07 01:23:33;;;;;;;11.95;7.78;;;;;;;2.45;79.74;99638.16;3820602;23;20018;-77
2021/01/07 01:25:08;;;;;;;11.27;6.93;;;;;;;2.54;79.72;99638.50;3823568;23;20100;-78
2021/01/07 01:26:39;;;;;;;12.63;7.75;;;;;;;2.54;79.79;99642.00;3820356;23;20072;-77
2021/01/07 01:28:12;;;;;;;13.20;8.00;;;;;;;2.54;79.64;99642.00;3822294;23;20021;-77
2021/01/07 01:29:43;;;;;;;11.65;7.47;;;;;;;2.51;79.80;99650.09;3819722;23;20017;-79
2021/01/07 01:31:20;;;;;;;;;;;;;;;2.37;80.07;99645.75;3822869;23;20027;-78
2021/01/07 01:32:52;;;;;;;15.38;8.60;;;;;;;2.48;79.90;99647.66;3819087;23;19917;-77
2021/01/07 01:34:24;;;;;;;14.38;8.43;;;;;;;2.43;79.81;99649.78;3821677;23;20025;-77
2021/01/07 01:35:56;;;;;;;12.68;7.50;;;;;;;2.46;79.78;99649.53;3819200;23;20029;-77
2021/01/07 01:37:29;;;;;;;14.43;8.32;;;;;;;2.49;79.97;99652.00;3822209;23;20021;-77
2021/01/07 01:39:02;;;;;;;11.20;6.18;;;;;;;2.60;79.66;99643.34;3822695;23;20028;-78
2021/01/07 01:40:33;;;;;;;11.77;6.40;;;;;;;2.63;79.54;99651.06;3829481;23;20025;-76
2021/01/07 01:42:12;;;;;;;12.40;7.30;;;;;;;2.65;79.05;99650.00;3819414;23;20076;-76
2021/01/07 01:43:48;;;;;;;11.75;6.68;;;;;;;2.67;79.00;99649.06;3822113;23;20030;-78
2021/01/07 01:45:23;;;;;;;11.93;7.40;;;;;;;2.64;78.87;99643.06;3817704;23;20022;-76
2021/01/07 01:46:55;;;;;;;13.45;7.97;;;;;;;2.64;79.26;99645.69;3817901;23;20061;-78
2021/01/07 01:48:26;;;;;;;14.73;8.65;;;;;;;2.69;79.08;99649.81;3821475;23;20025;-77
2021/01/07 01:50:08;;;;;;;12.88;7.47;;;;;;;2.67;78.96;99646.41;3819591;23;20096;-77
2021/01/07 01:51:42;;;;;;;12.82;7.40;;;;;;;2.72;79.09;99639.88;3822752;23;20315;-77
2021/01/07 01:53:21;;;;;;;10.15;5.72;;;;;;;2.72;79.08;99644.34;3819238;23;20049;-78
2021/01/07 01:54:53;;;;;;;10.18;5.10;;;;;;;2.83;78.92;99641.81;3821769;23;20065;-78
2021/01/07 01:56:33;;;;;;;12.10;6.80;;;;;;;2.81;78.52;99639.25;3819577;23;20340;-79
2021/01/07 01:58:05;;;;;;;11.98;6.72;;;;;;;2.81;79.09;99638.41;3821665;23;20044;-76
2021/01/07 01:59:57;;;;;;;11.77;7.03;;;;;;;2.72;79.07;99644.34;3818353;23;20021;-77
2021/01/07 02:01:44;;;;;;;12.88;7.75;;;;;;;2.61;79.12;99642.41;3821573;23;20025;-76
2021/01/07 02:03:15;;;;;;;16.23;8.40;;;;;;;2.74;79.11;99645.91;3820612;23;20029;-82
2021/01/07 02:04:47;;;;;;;12.70;7.72;;;;;;;2.74;79.06;99642.44;3830352;23;20072;-81
2021/01/07 02:06:21;;;;;;;12.32;7.35;;;;;;;2.80;78.87;99636.72;3827264;23;20370;-82
2021/01/07 02:07:53;;;;;;;10.27;5.70;;;;;;;2.90;78.50;99639.56;3827111;23;20026;-80
2021/01/07 02:09:25;;;;;;;11.27;6.03;;;;;;;2.97;78.56;99644.34;3824836;23;20451;-77
2021/01/07 02:10:58;;;;;;;9.10;5.20;;;;;;;3.02;78.53;99640.53;3820038;23;20021;-77
2021/01/07 02:12:34;;;;;;;13.77;7.63;;;;;;;3.06;78.13;99647.28;3822211;23;20017;-78
2021/01/07 02:14:11;;;;;;;13.40;7.20;;;;;;;3.11;77.98;99648.66;3819458;23;20032;-78
2021/01/07 02:15:43;;;;;;;11.23;6.40;;;;;;;3.06;78.28;99647.28;3822023;23;20036;-76
2021/01/07 02:17:15;;;;;;;11.07;6.85;;;;;;;3.03;78.17;99637.78;3818909;23;20041;-76
2021/01/07 02:18:49;;;;;;;16.10;8.88;;;;;;;2.90;78.20;99643.06;3821265;23;20463;-77
2021/01/07 02:20:26;;;;;;;16.80;9.23;;;;;;;2.78;78.58;99650.03;3815688;23;20021;-76
2021/01/07 02:22:05;;;;;;;14.80;8.82;;;;;;;2.78;78.61;99647.41;3821475;23;20022;-77
2021/01/07 02:23:51;;;;;;;14.57;8.68;;;;;;;2.75;78.60;99641.47;3818780;23;20032;-76
2021/01/07 02:25:23;;;;;;;13.93;8.32;;;;;;;2.69;79.01;99649.81;3821492;23;20032;-76
2021/01/07 02:26:57;;;;;;;16.58;9.05;;;;;;;2.66;79.16;99645.59;3818417;23;20022;-77
2021/01/07 02:28:31;;;;;;;15.05;9.07;;;;;;;2.59;79.36;99642.50;3821410;23;20017;-78
2021/01/07 02:30:06;;;;;;;18.15;10.15;;;;;;;2.62;79.42;99644.94;3819158;23;20026;-77
2021/01/07 02:31:37;;;;;;;15.95;9.40;;;;;;;2.62;79.27;99639.69;3821742;23;20029;-78
2021/01/07 02:33:10;;;;;;;14.82;9.32;;;;;;;2.63;79.20;99646.66;3818584;23;20022;-76
2021/01/07 02:34:44;;;;;;;17.30;8.25;;;;;;;2.71;79.16;99640.00;3821279;23;20025;-76
2021/01/07 02:36:16;;;;;;;16.27;9.40;;;;;;;2.73;79.14;99638.09;3818615;23;20136;-79
2021/01/07 02:37:47;;;;;;;16.30;9.13;;;;;;;2.69;79.04;99649.81;3821734;23;20028;-76
2021/01/07 02:39:18;;;;;;;15.02;8.98;;;;;;;2.72;79.30;99646.97;3817997;23;20028;-77
2021/01/07 02:40:55;;;;;;;;;;;;;;;2.59;79.40;99645.16;3821793;23;20017;-77
2021/01/07 02:42:26;;;;;;;16.35;9.27;;;;;;;2.64;79.26;99642.19;3819779;23;20326;-79
2021/01/07 02:43:58;;;;;;;14.77;8.45;;;;;;;2.64;79.24;99635.16;3818801;23;20335;-76
2021/01/07 02:45:29;;;;;;;14.68;8.73;;;;;;;2.68;79.04;99638.41;3821350;23;20025;-76
2021/01/07 02:47:02;;;;;;;15.93;8.63;;;;;;;2.78;79.02;99638.63;3818066;23;20056;-75
2021/01/07 02:48:43;;;;;;;17.15;9.48;;;;;;;2.76;79.05;99635.22;3821241;23;20025;-75
2021/01/07 02:50:14;;;;;;;17.05;8.98;;;;;;;2.80;79.25;99631.44;3817369;23;20072;-78
2021/01/07 02:51:46;;;;;;;13.23;7.70;;;;;;;2.83;78.98;99631.25;3820591;23;20025;-77
2021/01/07 02:53:20;;;;;;;18.55;10.40;;;;;;;2.80;78.84;99634.09;3818098;23;20017;-77
2021/01/07 02:54:52;;;;;;;16.83;9.68;;;;;;;2.74;78.84;99627.44;3820506;23;20056;-77
2021/01/07 02:56:25;;;;;;;15.35;9.38;;;;;;;2.74;78.91;99630.06;3817928;23;20025;-76
2021/01/07 02:58:01;;;;;;;14.63;8.18;;;;;;;2.79;78.68;99627.13;3820157;23;20073;-77
2021/01/07 02:59:32;;;;;;;17.60;10.13;;;;;;;2.72;79.07;99626.69;3817564;23;20017;-77
2021/01/07 03:01:04;;;;;;;16.80;8.98;;;;;;;2.72;79.03;99617.94;3820298;23;20033;-76
2021/01/07 03:02:41;;;;;;;17.08;9.15;;;;;;;2.71;79.17;99632.91;3816863;23;20022;-76
2021/01/07 03:04:14;;;;;;;19.75;8.75;;;;;;;2.77;78.96;99637.78;3820228;23;20022;-77
2021/01/07 03:05:48;;;;;;;16.77;9.32;;;;;;;2.80;78.96;99631.44;3816846;23;20029;-76
2021/01/07 03:07:20;;;;;;;14.60;8.25;;;;;;;2.80;79.02;99632.28;3820561;23;20017;-76
2021/01/07 03:09:00;;;;;;;15.82;9.05;;;;;;;2.78;78.68;99633.34;3816773;23;20514;-77
2021/01/07 03:10:32;;;;;;;17.73;9.25;;;;;;;2.77;79.09;99631.66;3821404;23;20037;-76
2021/01/07 03:12:13;;;;;;;15.20;8.32;;;;;;;2.77;78.53;99627.22;3818703;23;20041;-78
2021/01/07 03:13:44;;;;;;;14.55;7.88;;;;;;;2.77;78.94;99629.00;3821436;23;20022;-77
2021/01/07 03:15:18;;;;;;;14.57;8.10;;;;;;;2.80;78.75;99626.16;3818681;23;20044;-77
2021/01/07 03:16:50;;;;;;;15.52;8.85;;;;;;;2.77;78.80;99632.50;3819938;23;20021;-77
2021/01/07 03:18:21;;;;;;;14.45;8.60;;;;;;;2.75;78.78;99631.75;3817724;23;20123;-77
2021/01/07 03:19:53;;;;;;;13.50;8.38;;;;;;;2.79;78.75;99624.47;3817267;23;20022;-77
2021/01/07 03:21:30;;;;;;;13.75;8.35;;;;;;;2.79;78.55;99624.47;3820068;23;20427;-77
2021/01/07 03:23:02;;;;;;;15.45;9.13;;;;;;;2.81;78.66;99635.78;3817752;23;20021;-77
2021/01/07 03:24:39;;;;;;;14.52;8.52;;;;;;;2.79;78.47;99629.75;3829327;23;20025;-78
2021/01/07 03:26:11;;;;;;;14.68;8.48;;;;;;;2.76;78.67;99624.66;3823654;23;20033;-79
2021/01/07 03:27:43;;;;;;;14.52;8.25;;;;;;;2.78;78.87;99623.66;3820915;23;20032;-77
2021/01/07 03:29:14;;;;;;;14.88;8.77;;;;;;;2.80;78.48;99620.88;3817147;23;20427;-76
2021/01/07 03:30:46;;;;;;;14.73;8.80;;;;;;;2.80;78.55;99620.88;3820358;23;20478;-76
2021/01/07 03:32:24;;;;;;;14.75;9.13;;;;;;;2.77;78.53;99626.38;3817803;23;20100;-78
2021/01/07 03:34:02;;;;;;;14.52;8.60;;;;;;;2.73;78.63;99616.97;3823623;23;20029;-79
2021/01/07 03:35:34;;;;;;;14.27;8.38;;;;;;;2.75;78.82;99623.84;3823596;23;20029;-76
2021/01/07 03:37:06;;;;;;;14.38;8.15;;;;;;;2.78;78.82;99628.06;3830557;23;20021;-82
2021/01/07 03:38:38;;;;;;;14.90;7.70;;;;;;;2.78;78.86;99622.78;3832522;23;20045;-80
2021/01/07 03:40:11;;;;;;;16.05;8.88;;;;;;;2.80;78.67;99626.16;3830274;23;20029;-80
2021/01/07 03:41:49;;;;;;;15.15;8.45;;;;;;;2.74;79.14;99621.31;3822245;23;20029;-76
2021/01/07 03:43:29;;;;;;;14.18;8.82;;;;;;;2.71;79.18;99627.63;3820621;23;20026;-76
2021/01/07 03:45:06;;;;;;;16.83;9.90;;;;;;;2.67;79.16;99626.16;3818057;23;20053;-76
2021/01/07 03:46:38;;;;;;;16.33;9.07;;;;;;;2.80;78.91;99620.88;3820302;23;20033;-77
2021/01/07 03:48:16;;;;;;;17.33;9.20;;;;;;;2.74;78.62;99624.78;3818132;23;20021;-77
2021/01/07 03:50:03;;;;;;;17.38;10.50;;;;;;;2.67;78.97;99620.03;3819573;23;20033;-76
2021/01/07 03:51:40;;;;;;;18.40;10.68;;;;;;;2.67;79.33;99627.94;3818400;23;20044;-77
2021/01/07 03:53:17;;;;;;;18.88;10.82;;;;;;;2.64;79.24;99624.59;3818032;23;20018;-78
2021/01/07 03:54:49;;;;;;;17.40;9.60;;;;;;;2.68;79.35;99616.44;3820552;23;20040;-78
2021/01/07 03:56:20;;;;;;;19.30;10.55;;;;;;;2.69;79.43;99618.13;3818119;23;20018;-77
2021/01/07 03:57:54;;;;;;;17.33;10.32;;;;;;;2.68;79.12;99621.72;3820189;23;20072;-80
2021/01/07 03:59:31;;;;;;;17.98;10.73;;;;;;;2.62;79.48;99620.34;3817162;23;20025;-77
2021/01/07 04:01:03;;;;;;;20.05;10.55;;;;;;;2.61;79.82;99616.88;3820472;23;20025;-76
2021/01/07 04:02:41;;;;;;;17.45;10.20;;;;;;;2.64;79.67;99621.94;3818874;23;20025;-77
2021/01/07 04:04:14;;;;;;;19.60;10.57;;;;;;;2.69;79.47;99612.84;3821006;23;20080;-80
2021/01/07 04:05:53;;;;;;;16.60;9.38;;;;;;;2.74;79.18;99618.69;3818814;23;20022;-76
2021/01/07 04:07:31;;;;;;;17.20;10.00;;;;;;;2.72;79.42;99615.28;3821745;23;20081;-79
2021/01/07 04:09:06;;;;;;;16.23;9.05;;;;;;;2.73;79.44;99609.91;3818990;23;20025;-78
2021/01/07 04:10:38;;;;;;;20.00;11.15;;;;;;;2.71;79.29;99606.50;3821425;23;20025;-76
2021/01/07 04:12:13;;;;;;;20.27;11.18;;;;;;;2.74;79.16;99610.75;3819233;23;20022;-76
2021/01/07 04:13:51;;;;;;;18.25;9.88;;;;;;;2.73;79.21;99609.91;3821207;23;20033;-76
2021/01/07 04:15:23;;;;;;;18.38;10.35;;;;;;;2.76;79.44;99608.84;3819117;23;20017;-77
2021/01/07 04:16:54;;;;;;;18.98;10.13;;;;;;;2.76;79.39;99599.13;3818954;23;20025;-76
2021/01/07 04:18:37;;;;;;;21.95;11.45;;;;;;;2.75;79.20;99602.72;3821252;23;20030;-76
2021/01/07 04:20:09;;;;;;;18.33;9.95;;;;;;;2.77;79.35;99600.84;3819052;23;20056;-76
2021/01/07 04:21:55;;;;;;;20.77;10.93;;;;;;;2.74;79.16;99600.19;3820754;23;20080;-76
2021/01/07 04:23:27;;;;;;;21.65;11.95;;;;;;;2.74;79.20;99601.03;3819095;23;20080;-76
2021/01/07 04:25:11;;;;;;;19.60;10.85;;;;;;;2.74;79.23;99610.75;3821072;23;20359;-76
2021/01/07 04:26:53;;;;;;;23.27;11.15;;;;;;;2.74;79.46;99605.47;3818994;23;20025;-76
2021/01/07 04:28:28;;;;;;;22.23;10.93;;;;;;;2.76;79.51;99614.13;3821564;23;20021;-77
2021/01/07 04:30:04;;;;;;;21.77;12.80;;;;;;;2.75;79.42;99605.38;3818673;23;20022;-78
2021/01/07 04:31:48;;;;;;;21.67;11.60;;;;;;;2.75;79.40;99609.78;3821088;23;20029;-76
2021/01/07 04:33:20;;;;;;;21.58;12.45;;;;;;;2.79;79.43;99608.63;3818917;23;20024;-77
2021/01/07 04:34:52;;;;;;;19.67;11.43;;;;;;;2.76;79.68;99608.84;3818625;23;20032;-77
2021/01/07 04:36:23;;;;;;;26.77;13.85;;;;;;;2.73;79.59;99606.44;3821254;23;20025;-76
2021/01/07 04:38:02;;;;;;;25.90;13.73;;;;;;;2.75;79.54;99602.72;3818978;23;20071;-76
2021/01/07 04:39:35;;;;;;;25.65;12.55;;;;;;;2.72;79.42;99596.81;3821349;23;20021;-76
2021/01/07 04:41:07;;;;;;;25.10;12.57;;;;;;;2.74;79.54;99597.56;3819453;23;20026;-76
2021/01/07 04:42:40;;;;;;;24.92;13.90;;;;;;;2.71;79.58;99608.31;3823746;23;20025;-83
2021/01/07 04:44:13;;;;;;;22.60;12.07;;;;;;;2.72;79.68;99607.38;3831828;23;20037;-82
2021/01/07 04:45:55;;;;;;;19.02;10.38;;;;;;;2.77;79.61;99600.84;3835901;23;20026;-84
2021/01/07 04:47:38;;;;;;;20.50;11.23;;;;;;;2.79;79.27;99596.25;3833179;23;20022;-84
2021/01/07 04:49:16;;;;;;;18.75;9.82;;;;;;;2.87;79.29;99606.31;3822424;23;20021;-76
2021/01/07 04:50:53;;;;;;;23.02;12.13;;;;;;;2.87;79.19;99606.31;3819294;23;20025;-76
2021/01/07 04:52:25;;;;;;;21.80;12.93;;;;;;;2.85;78.93;99602.91;3821294;23;20056;-75
2021/01/07 04:53:57;;;;;;;23.90;12.90;;;;;;;2.81;79.32;99609.38;3819164;23;20033;-77
2021/01/07 04:55:29;;;;;;;21.30;12.05;;;;;;;2.81;79.13;99604.09;3820829;23;20650;-77
2021/01/07 04:57:00;;;;;;;25.73;13.48;;;;;;;2.80;79.20;99605.03;3817782;23;20024;-79
2021/01/07 04:58:32;;;;;;;25.85;12.85;;;;;;;2.79;79.10;99604.19;3820427;23;20533;-78
2021/01/07 05:00:08;;;;;;;24.65;11.85;;;;;;;2.79;79.25;99604.19;3817983;23;20033;-83
2021/01/07 05:01:41;;;;;;;25.13;13.00;;;;;;;2.77;79.48;99607.88;3821104;23;20032;-77
2021/01/07 05:03:19;;;;;;;22.63;12.88;;;;;;;2.71;79.59;99610.97;3817798;23;20083;-79
2021/01/07 05:04:54;;;;;;;24.38;12.80;;;;;;;2.71;79.55;99600.41;3817739;23;20077;-77
2021/01/07 05:06:28;;;;;;;25.40;13.05;;;;;;;2.69;79.68;99603.16;3819567;23;20024;-78
2021/01/07 05:08:03;;;;;;;27.13;13.15;;;;;;;2.75;79.55;99608.00;3817767;23;20021;-76
2021/01/07 05:09:34;;;;;;;20.30;11.02;;;;;;;2.73;79.72;99604.63;3819988;23;20021;-76
2021/01/07 05:11:05;;;;;;;22.25;12.25;;;;;;;2.78;79.71;99605.16;3817988;23;20541;-76
2021/01/07 05:12:38;;;;;;;20.35;12.18;;;;;;;2.80;79.57;99599.75;3820348;23;20076;-76
2021/01/07 05:14:11;;;;;;;29.15;13.30;;;;;;;2.77;79.27;99603.47;3817379;23;20041;-76
2021/01/07 05:15:44;;;;;;;23.63;12.48;;;;;;;2.76;79.45;99601.78;3819997;23;20029;-76
2021/01/07 05:17:18;;;;;;;23.00;12.65;;;;;;;2.74;79.46;99610.75;3818154;23;20025;-77
2021/01/07 05:18:49;;;;;;;25.77;13.57;;;;;;;2.74;79.50;99598.38;3819677;23;20033;-76
2021/01/07 05:20:21;;;;;;;22.23;12.02;;;;;;;2.72;79.51;99599.44;3818044;23;20017;-77
2021/01/07 05:21:54;;;;;;;26.20;13.43;;;;;;;2.71;79.54;99600.41;3826429;23;20026;-81
2021/01/07 05:23:28;;;;;;;24.20;12.20;;;;;;;2.67;79.29;99601.53;3827075;23;20028;-77
2021/01/07 05:25:00;;;;;;;21.67;12.75;;;;;;;2.63;79.55;99600.91;3829159;23;20022;-80
2021/01/07 05:26:31;;;;;;;22.75;12.90;;;;;;;2.63;79.49;99599.13;3828047;23;20017;-79
2021/01/07 05:28:03;;;;;;;28.27;14.45;;;;;;;2.60;79.76;99599.34;3822388;23;20034;-76
2021/01/07 05:29:37;;;;;;;21.60;13.15;;;;;;;2.58;79.64;99608.31;3818122;23;20458;-77
2021/01/07 05:31:10;;;;;;;26.90;14.85;;;;;;;2.60;79.69;99599.34;3821024;23;20557;-77
2021/01/07 05:32:43;;;;;;;25.90;13.63;;;;;;;2.57;79.66;99594.25;3818311;23;20072;-76
2021/01/07 05:34:14;;;;;;;25.08;12.10;;;;;;;2.59;79.63;99602.91;3820203;23;20025;-77
2021/01/07 05:35:55;;;;;;;29.33;13.38;;;;;;;2.56;79.45;99597.00;3817590;23;20057;-77
2021/01/07 05:37:33;;;;;;;;;;;;;;;2.47;79.93;99603.75;3820499;23;20390;-77
2021/01/07 05:39:06;;;;;;;28.27;14.43;;;;;;;2.45;80.37;99598.59;3816372;23;19916;-79
2021/01/07 05:40:39;;;;;;;26.98;13.88;;;;;;;2.51;80.24;99597.31;3819975;23;20022;-77
2021/01/07 05:42:11;;;;;;;25.52;13.30;;;;;;;2.50;80.02;99595.63;3817244;23;20024;-77
2021/01/07 05:43:43;;;;;;;26.17;14.02;;;;;;;2.47;80.14;99590.56;3819146;23;20022;-77
2021/01/07 05:45:17;;;;;;;29.48;14.82;;;;;;;2.48;80.14;99597.53;3819955;23;20081;-82
2021/01/07 05:46:50;;;;;;;25.73;12.60;;;;;;;2.54;79.98;99599.75;3822776;23;20383;-78
2021/01/07 05:48:21;;;;;;;21.50;11.55;;;;;;;2.59;80.17;99596.81;3821090;23;20014;-82
2021/01/07 05:49:53;;;;;;;21.48;10.25;;;;;;;2.63;79.98;99593.84;3819378;23;20041;-79
2021/01/07 05:51:28;;;;;;;22.98;11.85;;;;;;;2.57;79.77;99591.63;3823762;23;20033;-78
2021/01/07 05:53:02;;;;;;;22.33;11.77;;;;;;;2.55;80.10;99593.50;3820373;23;20036;-79
2021/01/07 05:54:43;;;;;;;22.52;11.23;;;;;;;2.59;79.85;99596.81;3822933;23;20028;-78
2021/01/07 05:56:18;;;;;;;21.70;11.57;;;;;;;2.60;79.96;99588.78;3820402;23;20092;-78
2021/01/07 05:57:58;;;;;;;24.65;11.88;;;;;;;2.65;79.76;99599.03;3823275;23;20072;-77
2021/01/07 05:59:33;;;;;;;21.50;10.48;;;;;;;2.69;79.62;99599.66;3826693;23;20021;-79
2021/01/07 06:01:06;;;;;;;19.85;9.80;;;;;;;2.68;79.77;99595.31;3829534;23;20032;-83
2021/01/07 06:02:39;;;;;;;21.55;11.82;;;;;;;2.67;79.90;99585.72;3828733;23;20026;-82
2021/01/07 06:04:12;;;;;;;19.80;10.68;;;;;;;2.62;79.88;99592.16;3829465;23;20399;-81
2021/01/07 06:05:50;;;;;;;25.25;11.88;;;;;;;2.58;79.72;99595.94;3828120;23;20021;-77
2021/01/07 06:07:26;;;;;;;20.65;10.38;;;;;;;2.64;79.91;99594.69;3824706;23;20100;-78
2021/01/07 06:08:57;;;;;;;22.27;10.48;;;;;;;2.67;79.87;99589.22;3821032;23;20028;-78
2021/01/07 06:10:29;;;;;;;22.30;11.02;;;;;;;2.69;79.79;99592.59;3823947;23;20026;-78
2021/01/07 06:12:03;;;;;;;17.95;9.40;;;;;;;2.74;79.87;99587.84;3820390;23;20025;-79
2021/01/07 06:13:43;;;;;;;24.75;10.55;;;;;;;2.78;79.62;99586.69;3822741;23;20029;-77
2021/01/07 06:15:23;;;;;;;23.02;10.63;;;;;;;2.88;79.53;99597.44;3819770;23;20025;-81
2021/01/07 06:16:57;;;;;;;23.80;10.88;;;;;;;2.87;79.41;99595.75;3820570;23;20378;-80
2021/01/07 06:18:28;;;;;;;23.45;11.77;;;;;;;2.78;79.57;99591.09;3822871;23;20026;-76
2021/01/07 06:20:00;;;;;;;23.15;11.95;;;;;;;2.72;79.51;99591.53;3819421;23;20049;-77
2021/01/07 06:21:31;;;;;;;26.98;12.20;;;;;;;2.70;79.39;99591.63;3821597;23;20025;-76
2021/01/07 06:23:04;;;;;;;;;;;;;;;2.56;79.72;99592.56;3818974;23;20028;-82
2021/01/07 06:24:37;;;;;;;20.25;10.88;;;;;;;2.56;80.05;99587.28;3822286;23;20313;-77
2021/01/07 06:26:20;;;;;;;24.83;11.63;;;;;;;2.57;79.60;99590.78;3819923;23;20025;-82
2021/01/07 06:27:57;;;;;;;22.50;11.10;;;;;;;2.59;79.79;99592.38;3821633;23;20359;-78
2021/01/07 06:29:29;;;;;;;21.55;11.27;;;;;;;2.60;79.86;99598.47;3817932;23;20722;-80
2021/01/07 06:31:01;;;;;;;20.13;9.77;;;;;;;2.64;79.85;99595.56;3821197;23;20036;-78
2021/01/07 06:32:33;;;;;;;20.38;10.30;;;;;;;2.64;79.75;99589.41;3817625;23;20473;-77
2021/01/07 06:34:05;;;;;;;23.77;11.85;;;;;;;2.65;79.56;99597.22;3824309;23;20021;-81
2021/01/07 06:35:41;;;;;;;23.13;11.45;;;;;;;2.62;79.88;99597.44;3823218;23;20018;-78
2021/01/07 06:37:12;;;;;;;17.90;9.20;;;;;;;2.63;79.93;99598.28;3824987;23;20049;-78
2021/01/07 06:38:51;;;;;;;23.00;12.18;;;;;;;2.61;79.77;99593.13;3821071;23;20029;-80
2021/01/07 06:40:23;;;;;;;22.38;11.65;;;;;;;2.57;80.21;99594.25;3820825;23;20072;-78
2021/01/07 06:42:02;;;;;;;23.05;11.70;;;;;;;2.61;79.97;99600.16;3818329;23;20076;-78
2021/01/07 06:43:33;;;;;;;22.10;10.70;;;;;;;2.63;80.02;99599.13;3821097;23;20083;-79
2021/01/07 06:45:08;;;;;;;18.38;9.52;;;;;;;2.69;80.01;99597.00;3818021;23;20362;-78
2021/01/07 06:46:43;;;;;;;21.17;10.52;;;;;;;2.71;79.72;99592.47;3820638;23;20027;-78
2021/01/07 06:48:23;;;;;;;22.25;10.80;;;;;;;2.74;79.73;99601.03;3818479;23;20336;-78
2021/01/07 06:49:55;;;;;;;20.60;9.98;;;;;;;2.75;79.91;99602.72;3817439;23;20054;-78
2021/01/07 06:51:26;;;;;;;18.73;9.95;;;;;;;2.78;79.77;99599.03;3818684;23;20096;-78
2021/01/07 06:53:03;;;;;;;23.00;10.57;;;;;;;2.77;79.69;99605.25;3817906;23;20021;-78
2021/01/07 06:54:39;;;;;;;22.02;11.40;;;;;;;2.75;79.89;99601.88;3819251;23;20018;-79
2021/01/07 06:56:16;;;;;;;22.63;11.63;;;;;;;2.71;79.97;99610.97;3818421;23;27856;-80
2021/01/07 06:57:50;;;;;;;21.17;11.55;;;;;;;2.69;79.99;99610.22;3819866;23;20036;-78
2021/01/07 06:59:22;;;;;;;25.05;12.57;;;;;;;2.64;80.10;99606.13;3817144;23;20025;-78
2021/01/07 07:00:54;;;;;;;21.90;12.40;;;;;;;2.67;80.11;99609.47;3819592;23;20049;-78
2021/01/07 07:02:28;;;;;;;23.27;11.75;;;;;;;2.61;79.94;99611.59;3817386;23;20029;-79
2021/01/07 07:04:03;;;;;;;23.88;12.02;;;;;;;2.53;80.11;99618.31;3819050;23;20024;-81
2021/01/07 07:05:36;;;;;;;20.95;11.27;;;;;;;2.50;80.24;99617.56;3818264;23;20650;-81
2021/01/07 07:07:36;;;;;;;22.70;12.35;;;;;;;2.47;80.33;99614.31;3833053;23;20073;-80
2021/01/07 07:09:25;;;;;;;21.35;11.93;;;;;;;2.40;80.06;99610.38;3830870;23;20181;-80
2021/01/07 07:10:55;;;;;;;18.13;10.02;;;;;;;2.40;80.40;99620.94;3824733;23;20034;-80
2021/01/07 07:12:29;;;;;;;;;;;;;;;2.32;80.46;99617.03;3821339;23;20386;-77
2021/01/07 07:14:05;;;;;;;21.35;12.07;;;;;;;2.38;80.51;99614.91;3817588;23;19918;-78
2021/01/07 07:15:43;;;;;;;22.38;11.20;;;;;;;2.40;80.09;99624.44;3822621;23;20025;-77
2021/01/07 07:17:14;;;;;;;21.10;11.07;;;;;;;2.39;80.37;99624.53;3818306;23;20017;-79
2021/01/07 07:18:45;;;;;;;20.75;11.15;;;;;;;2.39;80.31;99629.81;3821047;23;20021;-85
2021/01/07 07:20:19;;;;;;;;;;;;;;;2.28;81.02;99630.53;3821506;23;20021;-80
2021/01/07 07:21:56;;;;;;;20.30;10.52;;;;;;;2.38;80.71;99622.84;3821210;23;20365;-77
2021/01/07 07:23:37;;;;;;;22.98;10.73;;;;;;;2.40;80.54;99629.72;3817510;23;20022;-76